Time;durP1;ratioP1;P1;durP2;ratioP2;P2;SDS_P1;SDS_P2;PMS_P1;PMS_P2;Temp;Humidity;BMP_temperature;BMP_pressure;BME280_temperature;BME280_humidity;BME280_pressure;Samples;Min_cycle;Max_cycle;Signal;HPM_P1;HPM_P2
2023/04/13 07:31:40;;;;;;;6.10;1.20;;;;;;;5.97;75.67;95577.63;2092917;27;20572;-60
2023/04/13 07:32:42;;;;;;;6.95;1.88;;;;;;;6.21;74.09;95552.41;2089667;28;20216;-60
2023/04/13 07:33:43;;;;;;;14.40;1.67;;;;;;;6.37;74.51;95575.03;2088595;28;20239;-60
2023/04/13 07:34:46;;;;;;;5.80;1.23;;;;;;;6.50;73.34;95571.00;2073807;28;20668;-60
2023/04/13 07:35:49;;;;;;;4.38;1.33;;;;;;;6.62;73.26;95574.78;2062899;28;20202;-60
2023/04/13 07:37:49;;;;;;;16.85;2.35;;;;;;;6.33;73.91;95574.34;2082563;28;20584;-60
2023/04/13 07:39:52;;;;;;;16.50;5.25;;;;;;;6.14;74.53;95560.53;2083226;28;21118;-58
2023/04/13 07:40:53;;;;;;;12.10;3.50;;;;;;;6.51;74.15;95564.03;2079430;28;20204;-61
2023/04/13 07:41:56;;;;;;;8.88;2.95;;;;;;;6.70;73.23;95572.69;2079733;28;20288;-62
2023/04/13 07:42:57;;;;;;;6.18;1.33;;;;;;;6.83;73.62;95572.09;2082119;28;20198;-63
2023/04/13 07:43:58;;;;;;;10.70;2.50;;;;;;;6.94;73.56;95567.22;2083325;28;20649;-62
2023/04/13 07:45:00;;;;;;;5.55;1.05;;;;;;;7.29;72.19;95576.88;2078629;28;20278;-63
2023/04/13 07:46:07;;;;;;;14.20;2.40;;;;;;;7.74;69.61;95580.69;2082563;28;20204;-63
2023/04/13 07:47:11;;;;;;;11.85;1.70;;;;;;;8.06;68.18;95575.59;2081645;28;20557;-62
2023/04/13 07:48:13;;;;;;;9.48;3.10;;;;;;;8.37;67.48;95578.34;2082679;28;20250;-62
2023/04/13 07:49:15;;;;;;;5.70;1.52;;;;;;;8.48;67.04;95576.91;2082987;28;20213;-63
2023/04/13 07:50:16;;;;;;;12.32;2.08;;;;;;;8.59;66.50;95583.31;2081559;28;20564;-62
2023/04/13 07:51:19;;;;;;;12.77;2.25;;;;;;;8.63;67.13;95575.25;2082376;28;20255;-62
2023/04/13 07:52:20;;;;;;;6.95;1.20;;;;;;;8.89;66.04;95578.19;2082050;28;20324;-62
2023/04/13 07:53:22;;;;;;;8.45;2.15;;;;;;;8.70;65.01;95580.09;2081331;28;20198;-63
2023/04/13 07:54:23;;;;;;;9.20;1.70;;;;;;;8.80;64.86;95573.50;2079416;28;20204;-63
2023/04/13 07:55:25;;;;;;;3.97;1.05;;;;;;;8.84;64.64;95575.00;2079016;28;20198;-62
2023/04/13 07:56:27;;;;;;;7.28;1.35;;;;;;;9.03;64.95;95572.22;2080804;28;20209;-62
2023/04/13 07:57:28;;;;;;;7.75;1.50;;;;;;;9.29;64.48;95577.72;2082993;28;20657;-62
2023/04/13 07:58:30;;;;;;;16.02;2.20;;;;;;;9.29;64.78;95567.31;2081611;28;20231;-62
2023/04/13 07:59:31;;;;;;;11.90;1.63;;;;;;;9.45;64.75;95577.72;2081265;28;20221;-62
2023/04/13 08:00:32;;;;;;;6.80;1.52;;;;;;;9.48;63.36;95578.38;2081223;28;20255;-62
2023/04/13 08:01:34;;;;;;;5.78;1.30;;;;;;;8.85;64.14;95566.28;2081627;28;20194;-61
2023/04/13 08:02:36;;;;;;;11.88;2.10;;;;;;;8.11;66.14;95578.81;2082277;28;20787;-61
2023/04/13 08:03:37;;;;;;;7.43;1.60;;;;;;;7.71;68.01;95572.19;2083472;28;20232;-61
2023/04/13 08:04:39;;;;;;;7.03;1.40;;;;;;;7.53;69.92;95577.41;2082535;28;20679;-61
2023/04/13 08:05:41;;;;;;;3.65;1.35;;;;;;;7.53;70.39;95585.22;2078657;28;20202;-61
2023/04/13 08:06:47;;;;;;;10.10;1.65;;;;;;;7.78;69.23;95579.63;2083200;28;20730;-61
2023/04/13 08:07:48;;;;;;;9.98;1.27;;;;;;;7.62;69.61;95571.75;2081280;28;20209;-63
2023/04/13 08:44:14;;;;;;;7.60;1.40;;;;;;;6.82;71.19;95598.97;2097679;27;20560;-61
2023/04/13 08:45:17;;;;;;;4.07;1.33;;;;;;;7.00;70.94;95607.66;2087269;28;20203;-61
2023/04/13 08:46:19;;;;;;;5.70;1.05;;;;;;;6.86;68.34;95610.88;2084726;28;20234;-61
2023/04/13 08:47:22;;;;;;;3.65;1.20;;;;;;;7.14;67.90;95600.03;2084628;28;20209;-61
2023/04/13 08:48:24;;;;;;;5.10;1.88;;;;;;;7.44;68.15;95601.22;2089469;28;20704;-61
2023/04/13 08:49:27;;;;;;;8.27;1.35;;;;;;;7.61;67.89;95603.00;2087296;28;20303;-61
2023/04/13 08:50:29;;;;;;;6.30;1.40;;;;;;;7.57;66.54;95604.06;2087196;28;20605;-61
2023/04/13 08:51:31;;;;;;;6.72;1.40;;;;;;;7.63;67.36;95609.81;2087251;28;20687;-61
2023/04/13 08:52:34;;;;;;;6.05;1.33;;;;;;;7.82;67.17;95609.75;2087214;28;20253;-61
2023/04/13 08:53:36;;;;;;;7.43;1.80;;;;;;;7.61;66.45;95603.00;2086990;28;20244;-61
2023/04/13 08:54:38;;;;;;;4.05;1.25;;;;;;;7.42;65.64;95597.88;2086656;28;20231;-61
2023/04/13 08:55:44;;;;;;;4.95;1.65;;;;;;;7.62;66.17;95605.53;2087103;28;20201;-61
2023/04/13 08:56:46;;;;;;;5.65;1.58;;;;;;;7.82;65.74;95604.53;2087237;28;20236;-61
2023/04/13 08:57:49;;;;;;;9.43;2.30;;;;;;;7.81;64.58;95594.22;2087363;28;20201;-61
2023/04/13 08:58:57;;;;;;;3.65;1.23;;;;;;;7.92;63.44;95591.06;2086937;28;20207;-61
2023/04/13 08:59:59;;;;;;;3.10;1.00;;;;;;;7.58;64.07;95587.56;2090252;28;20256;-61
2023/04/13 09:01:00;;;;;;;11.77;1.35;;;;;;;7.74;63.97;95598.88;2087875;28;20197;-61
2023/04/13 09:02:05;;;;;;;3.85;0.90;;;;;;;7.83;63.37;95595.84;2086990;28;20254;-61
2023/04/13 09:03:11;;;;;;;9.30;1.25;;;;;;;7.94;63.09;95594.44;2087242;28;20197;-61
2023/04/13 09:04:19;;;;;;;3.60;1.70;;;;;;;7.92;62.54;95596.28;2102667;28;20199;-61
2023/04/13 09:05:22;;;;;;;9.10;1.00;;;;;;;7.76;62.69;95599.66;2099704;28;20207;-61
2023/04/13 09:06:32;;;;;;;11.23;1.50;;;;;;;7.70;63.22;95594.75;2087090;28;20640;-61
2023/04/13 09:07:35;;;;;;;5.43;1.33;;;;;;;7.62;64.14;95592.53;2086324;28;20246;-62
2023/04/13 09:08:39;;;;;;;8.60;1.63;;;;;;;7.64;64.56;95601.13;2087067;28;20225;-61
2023/04/13 09:09:44;;;;;;;8.77;1.95;;;;;;;7.50;64.76;95591.41;2086439;28;20299;-61
2023/04/13 10:55:58;;;;;;;10.93;2.05;;;;;;;7.13;76.89;95608.72;2107445;27;20903;-60
2023/04/13 10:57:03;;;;;;;4.75;1.27;;;;;;;7.42;76.20;95609.09;2105919;28;20206;-60
2023/04/13 10:58:17;;;;;;;5.45;1.40;;;;;;;8.12;72.73;95619.47;2104875;28;20214;-60
2023/04/13 10:59:19;;;;;;;4.82;1.65;;;;;;;9.15;71.54;95610.63;2100716;28;20198;-60
2023/04/13 11:00:22;;;;;;;5.53;1.20;;;;;;;9.07;69.02;95623.22;2095519;28;20269;-61
2023/04/13 11:01:39;;;;;;;7.38;1.35;;;;;;;9.07;69.13;95617.16;2094258;28;20211;-62
2023/04/13 11:02:41;;;;;;;8.35;3.17;;;;;;;9.13;69.37;95617.66;2093524;28;20188;-60
2023/04/13 11:03:43;;;;;;;13.18;6.85;;;;;;;9.95;65.41;95613.06;2093805;28;20323;-60
2023/04/13 11:05:01;;;;;;;12.57;4.60;;;;;;;10.45;64.42;95620.59;2095874;28;20308;-59
2023/04/13 11:06:03;;;;;;;5.70;2.25;;;;;;;10.98;62.98;95612.16;2095451;28;20203;-60
2023/04/13 11:07:06;;;;;;;2.58;0.90;;;;;;;11.78;62.27;95609.63;2095530;28;20195;-60
2023/04/13 11:08:08;;;;;;;5.82;1.08;;;;;;;11.95;60.61;95603.28;2096524;28;20594;-60
2023/04/13 11:09:10;;;;;;;7.80;1.00;;;;;;;11.60;60.45;95609.06;2095338;28;20221;-60
2023/04/13 11:10:23;;;;;;;2.38;0.80;;;;;;;11.67;61.78;95618.19;2095287;28;20199;-61
2023/04/13 11:11:24;;;;;;;3.25;0.98;;;;;;;11.20;61.21;95614.22;2094773;28;20674;-60
2023/04/13 11:12:26;;;;;;;2.90;0.93;;;;;;;10.72;61.81;95610.22;2094210;28;20228;-60
2023/04/13 11:13:30;;;;;;;5.43;0.90;;;;;;;10.34;60.73;95618.59;2092013;28;20196;-60
2023/04/13 11:14:31;;;;;;;2.33;1.02;;;;;;;10.02;61.09;95621.34;2090455;28;20266;-60
2023/04/13 11:15:33;;;;;;;3.45;1.08;;;;;;;9.74;61.82;95615.13;2084755;28;20686;-60
2023/04/13 11:16:44;;;;;;;3.90;0.80;;;;;;;9.38;62.77;95602.44;2086818;28;20679;-59
2023/04/13 11:17:57;;;;;;;2.90;0.90;;;;;;;9.44;63.25;95620.31;2085183;28;20200;-60
2023/04/13 11:19:01;;;;;;;2.88;0.80;;;;;;;9.90;62.40;95603.81;2084387;28;20844;-59
2023/04/13 11:20:07;;;;;;;3.75;1.00;;;;;;;10.99;61.76;95614.66;2084348;28;20225;-60
2023/04/13 11:21:16;;;;;;;5.13;0.80;;;;;;;10.52;60.94;95605.41;2086211;28;20580;-59
2023/04/13 11:22:21;;;;;;;1.52;0.80;;;;;;;10.27;62.14;95607.69;2086479;28;20274;-60
2023/04/13 11:23:23;;;;;;;4.20;1.00;;;;;;;9.89;61.95;95609.94;2085669;28;20200;-60
2023/04/13 11:24:26;;;;;;;3.28;0.80;;;;;;;9.37;62.13;95605.94;2085229;28;20195;-59
2023/04/13 11:25:29;;;;;;;2.65;0.60;;;;;;;9.28;63.08;95608.16;2085013;28;20199;-60
2023/04/13 11:26:35;;;;;;;3.75;0.77;;;;;;;9.24;63.24;95613.63;2086854;28;20201;-59
2023/04/13 11:27:36;;;;;;;3.63;0.82;;;;;;;9.06;62.82;95602.47;2087232;28;20249;-59
2023/04/13 11:28:45;;;;;;;1.50;0.80;;;;;;;9.37;62.28;95612.03;2086336;28;20230;-59
2023/04/13 11:30:04;;;;;;;6.60;0.70;;;;;;;9.57;62.82;95610.91;2083696;28;20213;-59
2023/04/13 11:31:06;;;;;;;6.47;0.93;;;;;;;9.95;62.45;95610.44;2084409;28;20204;-59
2023/04/13 11:32:17;;;;;;;1.80;0.70;;;;;;;10.59;60.28;95601.50;2085639;28;20197;-60
2023/04/13 11:33:27;;;;;;;7.15;1.00;;;;;;;11.64;59.03;95609.69;2086915;28;20611;-60
2023/04/13 11:34:29;;;;;;;3.22;0.88;;;;;;;12.01;57.91;95610.75;2086569;28;20718;-60
2023/04/13 11:35:30;;;;;;;4.03;0.60;;;;;;;11.70;56.71;95602.28;2085149;28;20254;-60
2023/04/13 11:36:32;;;;;;;4.80;0.80;;;;;;;11.89;56.34;95612.38;2086215;28;20207;-60
2023/04/13 11:37:38;;;;;;;5.68;1.02;;;;;;;11.45;57.45;95610.88;2087140;28;20238;-60
2023/04/13 11:38:40;;;;;;;2.25;0.70;;;;;;;10.99;58.11;95600.78;2086517;28;20193;-60
2023/04/13 11:39:45;;;;;;;4.93;0.70;;;;;;;10.77;58.93;95604.72;2086203;28;20303;-60
2023/04/13 11:40:47;;;;;;;4.53;1.10;;;;;;;10.25;59.83;95591.28;2083139;28;20193;-60
2023/04/13 11:41:49;;;;;;;2.00;0.80;;;;;;;10.32;60.47;95606.56;2086109;28;20200;-60
2023/04/13 11:42:53;;;;;;;4.63;1.00;;;;;;;9.88;60.23;95597.81;2086631;28;20647;-60
2023/04/13 11:43:54;;;;;;;2.33;0.70;;;;;;;9.75;60.75;95602.91;2086641;28;20204;-59
2023/04/13 11:44:56;;;;;;;5.18;1.38;;;;;;;9.80;60.44;95599.13;2083236;28;20307;-60
2023/04/13 11:45:58;;;;;;;2.38;0.88;;;;;;;9.91;59.96;95602.88;2085235;28;20217;-60
2023/04/13 11:47:01;;;;;;;1.90;1.00;;;;;;;10.40;58.96;95601.78;2087461;28;20205;-60
2023/04/13 11:48:05;;;;;;;3.05;1.10;;;;;;;10.46;59.17;95601.38;2087419;28;20205;-60
2023/04/13 11:49:07;;;;;;;2.40;0.85;;;;;;;10.48;57.60;95596.91;2084906;28;20560;-60
2023/04/13 11:50:09;;;;;;;2.67;0.80;;;;;;;10.50;57.77;95589.84;2085194;28;20315;-59
2023/04/13 11:51:13;;;;;;;1.83;0.70;;;;;;;9.98;59.23;95593.78;2086005;28;20665;-60
2023/04/13 11:52:15;;;;;;;1.85;1.00;;;;;;;10.43;59.39;95560.63;2085754;28;20527;-60
2023/04/13 11:53:17;;;;;;;4.90;1.08;;;;;;;11.40;57.28;95586.81;2085541;28;20260;-60
2023/04/13 11:54:19;;;;;;;5.57;1.00;;;;;;;11.87;56.01;95592.50;2086494;28;20231;-60
2023/04/13 11:55:21;;;;;;;3.20;0.82;;;;;;;11.92;55.07;95595.63;2084806;28;20267;-60
2023/04/13 11:56:24;;;;;;;1.40;0.75;;;;;;;11.35;56.42;95594.97;2086921;28;20346;-60
2023/04/13 11:57:27;;;;;;;4.28;0.70;;;;;;;11.01;57.46;95593.66;2084148;28;20206;-60
2023/04/13 11:58:30;;;;;;;2.20;0.70;;;;;;;10.90;58.90;95587.34;2087017;28;20196;-60
2023/04/13 11:59:31;;;;;;;3.20;1.13;;;;;;;11.60;56.71;95591.63;2086699;28;20326;-59
2023/04/13 12:00:40;;;;;;;2.00;0.63;;;;;;;11.63;56.41;95592.34;2085136;28;20766;-60
2023/04/13 12:01:48;;;;;;;9.18;1.20;;;;;;;11.00;56.69;95585.00;2085451;28;20196;-60
2023/04/13 12:02:56;;;;;;;5.03;1.00;;;;;;;10.35;58.76;95583.75;2086096;28;20291;-60
2023/04/13 12:04:04;;;;;;;8.23;0.80;;;;;;;10.01;59.20;95588.38;2086322;28;20200;-59
2023/04/13 12:05:21;;;;;;;3.92;0.80;;;;;;;9.88;59.80;95582.19;2084838;28;20228;-60
2023/04/13 12:06:23;;;;;;;3.45;0.90;;;;;;;9.90;59.99;95586.41;2085506;28;20188;-59
2023/04/13 12:07:25;;;;;;;3.17;0.70;;;;;;;9.84;58.91;95581.53;2080470;28;20289;-59
2023/04/13 12:08:28;;;;;;;2.60;0.80;;;;;;;10.70;58.05;95583.34;2081259;28;20200;-60
2023/04/13 12:09:41;;;;;;;4.47;1.08;;;;;;;11.13;56.86;95585.06;2080573;28;20235;-60
2023/04/13 12:10:58;;;;;;;1.48;0.73;;;;;;;11.44;55.59;95578.69;2081385;28;20209;-60
2023/04/13 12:12:23;;;;;;;5.38;1.00;;;;;;;11.55;55.13;95571.91;2080585;28;20633;-60
2023/04/13 12:13:38;;;;;;;4.15;1.00;;;;;;;11.11;55.74;95573.88;2080623;28;20667;-60
2023/04/13 12:14:55;;;;;;;4.18;0.95;;;;;;;10.87;56.10;95571.03;2078556;28;20308;-60
2023/04/13 12:16:25;;;;;;;2.33;0.82;;;;;;;10.20;58.04;95575.06;2081648;28;20210;-62
2023/04/13 12:17:53;;;;;;;6.78;1.35;;;;;;;9.96;59.87;95579.97;2079510;28;20205;-60
2023/04/13 12:19:10;;;;;;;6.85;0.90;;;;;;;10.48;61.49;95576.03;2079647;28;20193;-60
2023/04/13 12:20:16;;;;;;;6.57;1.05;;;;;;;10.44;59.96;95580.59;2081423;28;20216;-60
2023/04/13 12:21:19;;;;;;;5.10;1.02;;;;;;;10.19;58.45;95588.19;2081602;28;20243;-59
2023/04/13 12:22:22;;;;;;;3.17;0.90;;;;;;;9.83;59.29;95581.59;2081286;28;20206;-60
2023/04/13 12:23:24;;;;;;;3.40;0.95;;;;;;;9.75;59.63;95587.28;2070356;28;20202;-60
2023/04/13 12:24:34;;;;;;;9.27;1.25;;;;;;;9.69;60.58;95572.84;2072741;28;20232;-60
2023/04/13 12:25:38;;;;;;;5.45;1.20;;;;;;;9.67;60.83;95582.50;2079205;28;20225;-60
2023/04/13 12:26:40;;;;;;;4.07;1.00;;;;;;;9.91;61.01;95584.63;2078742;28;20193;-59
2023/04/13 12:28:02;;;;;;;3.35;0.85;;;;;;;10.01;60.41;95592.75;2080573;28;20602;-60
2023/04/13 12:29:04;;;;;;;2.90;0.90;;;;;;;10.19;60.33;95583.81;2079659;28;20243;-60
2023/04/13 12:30:11;;;;;;;4.03;0.90;;;;;;;10.53;59.67;95587.03;2079565;28;20221;-60
2023/04/13 12:31:14;;;;;;;2.97;1.10;;;;;;;10.83;57.65;95585.22;2080162;28;20197;-60
2023/04/13 12:32:16;;;;;;;7.53;1.10;;;;;;;10.82;56.31;95565.25;2081738;28;20232;-60
2023/04/13 12:33:18;;;;;;;2.45;0.80;;;;;;;10.74;56.03;95581.41;2081185;28;20205;-61
2023/04/13 12:34:21;;;;;;;24.00;12.88;;;;;;;11.15;55.69;95585.81;2078855;28;21074;-59
2023/04/13 12:35:22;;;;;;;5.82;1.70;;;;;;;11.84;56.37;95584.84;2081111;28;20205;-59
2023/04/13 12:36:27;;;;;;;19.67;8.43;;;;;;;11.10;56.24;95578.25;2080794;28;20343;-60
2023/04/13 12:37:28;;;;;;;3.15;1.17;;;;;;;11.13;56.21;95585.06;2088572;28;20340;-60
2023/04/13 12:38:30;;;;;;;2.47;0.90;;;;;;;11.13;57.50;95577.22;2089252;28;20192;-60
2023/04/13 12:39:33;;;;;;;5.00;1.10;;;;;;;11.09;57.85;95586.19;2085257;28;20809;-59
2023/04/13 12:40:34;;;;;;;3.88;1.05;;;;;;;11.37;56.81;95584.44;2080986;28;20204;-59
2023/04/13 12:41:36;;;;;;;4.93;0.90;;;;;;;11.59;56.08;95586.47;2082222;28;20551;-59
2023/04/13 12:42:41;;;;;;;3.85;0.98;;;;;;;11.58;55.15;95590.03;2080932;28;20202;-60
2023/04/13 12:43:42;;;;;;;1.00;0.55;;;;;;;11.71;54.54;95583.06;2076408;28;20225;-59
2023/04/13 12:44:44;;;;;;;2.80;1.20;;;;;;;11.39;55.34;95582.56;2076838;28;20247;-59
2023/04/13 12:45:45;;;;;;;2.83;0.90;;;;;;;11.62;55.73;95577.56;2080540;28;20201;-59
2023/04/13 12:46:47;;;;;;;2.45;0.80;;;;;;;11.42;54.99;95583.16;2080171;28;20205;-59
2023/04/13 12:47:48;;;;;;;2.03;0.60;;;;;;;11.58;55.60;95584.81;2080516;28;20197;-59
2023/04/13 12:48:50;;;;;;;3.80;0.85;;;;;;;11.97;54.99;95564.78;2081144;28;20200;-60
2023/04/13 12:49:51;;;;;;;3.97;1.00;;;;;;;11.93;54.47;95581.63;2077648;28;20304;-59
2023/04/13 12:50:53;;;;;;;3.75;0.82;;;;;;;12.02;55.31;95574.97;2081597;28;20201;-59
2023/04/13 12:51:54;;;;;;;4.85;1.00;;;;;;;11.57;55.57;95578.72;2080804;28;20252;-59
2023/04/13 12:52:56;;;;;;;4.03;1.20;;;;;;;11.52;55.74;95572.13;2079411;28;20224;-59
2023/04/13 12:53:57;;;;;;;2.53;0.95;;;;;;;11.12;56.36;95585.97;2077659;28;20201;-59
2023/04/13 12:55:00;;;;;;;2.55;0.95;;;;;;;10.92;56.57;95574.22;2079732;28;20437;-57
2023/04/13 12:56:02;;;;;;;1.98;0.80;;;;;;;10.65;57.09;95579.38;2079409;28;20308;-57
2023/04/13 12:57:04;;;;;;;5.75;1.73;;;;;;;10.54;58.03;95570.44;2080108;28;20804;-57
2023/04/13 12:58:06;;;;;;;2.15;0.80;;;;;;;10.52;59.00;95584.50;2080862;28;20201;-57
2023/04/13 12:59:07;;;;;;;4.22;1.10;;;;;;;10.45;58.93;95582.28;2078445;28;20303;-58
2023/04/13 13:00:10;;;;;;;3.58;1.02;;;;;;;10.54;59.54;95575.66;2079270;28;20855;-57
2023/04/13 13:01:12;;;;;;;5.93;1.10;;;;;;;10.44;59.57;95577.16;2079460;28;20197;-57
2023/04/13 13:02:15;;;;;;;6.13;1.00;;;;;;;10.51;60.31;95583.66;2080001;28;20224;-57
2023/04/13 13:03:16;;;;;;;3.33;1.00;;;;;;;10.66;60.42;95583.66;2079547;28;20728;-57
2023/04/13 13:04:18;;;;;;;3.15;0.98;;;;;;;10.24;60.39;95565.28;2077604;28;20197;-57
2023/04/13 13:05:19;;;;;;;4.82;1.10;;;;;;;10.33;59.52;95580.38;2075501;28;20886;-57
2023/04/13 13:06:21;;;;;;;2.15;0.90;;;;;;;10.30;59.44;95573.56;2079590;28;20197;-57
2023/04/13 13:07:22;;;;;;;5.78;1.10;;;;;;;10.54;59.89;95577.41;2080256;28;20227;-57
2023/04/13 13:08:25;;;;;;;6.03;1.77;;;;;;;10.34;59.66;95576.00;2080795;28;20296;-57
2023/04/13 13:09:26;;;;;;;10.32;1.40;;;;;;;10.23;58.23;95569.69;2080691;28;20207;-56
2023/04/13 13:10:28;;;;;;;7.85;1.30;;;;;;;10.47;57.66;95570.91;2081064;28;20197;-57
2023/04/13 13:11:30;;;;;;;5.53;1.50;;;;;;;10.88;55.25;95570.94;2082046;28;20545;-57
2023/04/13 13:12:32;;;;;;;4.35;1.33;;;;;;;11.37;55.26;95572.19;2082453;28;20659;-57
2023/04/13 13:13:34;;;;;;;5.15;1.10;;;;;;;11.91;53.05;95573.88;2080076;28;20656;-57
2023/04/13 13:14:35;;;;;;;4.10;1.10;;;;;;;12.34;52.66;95571.94;2080786;28;20232;-57
2023/04/13 13:15:37;;;;;;;4.20;1.02;;;;;;;13.19;52.13;95574.69;2080803;28;20254;-58
2023/04/13 13:16:38;;;;;;;5.88;1.70;;;;;;;13.66;51.64;95577.44;2081047;28;20564;-58
2023/04/13 13:17:40;;;;;;;5.20;1.27;;;;;;;14.24;51.16;95576.63;2078489;28;20194;-57
2023/04/13 13:18:42;;;;;;;6.85;1.23;;;;;;;14.72;50.90;95573.00;2078726;28;20240;-57
2023/04/13 13:19:51;;;;;;;4.53;0.90;;;;;;;14.40;49.46;95573.69;2076644;28;20680;-57
2023/04/13 13:20:53;;;;;;;9.15;1.30;;;;;;;14.26;49.54;95584.38;2078057;28;20325;-57
2023/04/13 13:21:54;;;;;;;3.50;0.98;;;;;;;13.77;50.48;95576.63;2079398;28;20208;-57
2023/04/13 13:22:56;;;;;;;8.85;1.10;;;;;;;13.04;51.23;95578.44;2080627;28;20197;-57
2023/04/13 13:23:58;;;;;;;5.72;1.20;;;;;;;13.05;51.48;95585.31;2080360;28;20205;-57
2023/04/13 13:25:00;;;;;;;3.63;1.25;;;;;;;12.69;52.26;95579.94;2080141;28;20683;-57
2023/04/13 13:26:02;;;;;;;3.30;1.20;;;;;;;12.39;52.94;95582.91;2079506;28;20595;-57
2023/04/13 13:27:23;;;;;;;2.78;1.02;;;;;;;11.98;54.16;95591.81;2078605;28;20290;-57
2023/04/13 13:28:27;;;;;;;3.78;1.30;;;;;;;11.95;55.21;95581.50;2079431;28;20210;-58
2023/04/13 13:29:32;;;;;;;9.98;1.40;;;;;;;11.47;56.63;95590.72;2079459;28;20312;-57
2023/04/13 13:30:37;;;;;;;3.20;0.90;;;;;;;10.61;59.58;95587.41;2078988;28;20266;-57
2023/04/13 13:31:40;;;;;;;8.02;1.23;;;;;;;9.81;61.79;95592.13;2078485;28;20204;-58
2023/04/13 13:32:41;;;;;;;3.35;1.20;;;;;;;9.45;62.26;95604.59;2077633;28;20203;-57
2023/04/13 13:33:43;;;;;;;1.85;0.98;;;;;;;9.29;63.99;95603.78;2079750;28;20201;-57
2023/04/13 13:34:44;;;;;;;5.32;1.25;;;;;;;9.06;63.99;95595.47;2077502;28;20581;-57
2023/04/13 13:35:47;;;;;;;6.22;1.20;;;;;;;8.85;64.61;95609.69;2075746;28;20228;-57
2023/04/13 13:36:48;;;;;;;5.82;0.93;;;;;;;8.56;65.85;95605.13;2081078;28;20588;-57
2023/04/13 13:37:50;;;;;;;4.55;1.00;;;;;;;8.62;66.53;95610.00;2079496;28;20892;-57
2023/04/13 13:38:51;;;;;;;5.65;1.33;;;;;;;8.56;66.51;95609.47;2078478;28;20202;-57
2023/04/13 13:39:53;;;;;;;3.55;0.90;;;;;;;8.33;68.97;95611.50;2077420;28;20218;-57
2023/04/13 13:40:55;;;;;;;5.88;1.15;;;;;;;8.08;70.33;95601.53;2078025;28;20194;-57
2023/04/13 13:41:57;;;;;;;4.03;1.10;;;;;;;8.10;72.63;95602.28;2081989;28;20278;-57
2023/04/13 13:42:58;;;;;;;3.05;1.10;;;;;;;7.98;70.87;95609.78;2080069;28;20288;-57
2023/04/13 13:44:00;;;;;;;4.30;1.13;;;;;;;8.05;72.98;95597.34;2081459;28;20224;-57
2023/04/13 13:45:01;;;;;;;3.50;1.00;;;;;;;8.15;73.46;95608.94;2081164;28;20223;-57
2023/04/13 13:46:04;;;;;;;5.78;1.10;;;;;;;8.27;73.42;95604.84;2077999;28;20293;-57
2023/04/13 13:47:06;;;;;;;2.53;1.08;;;;;;;8.57;72.36;95606.81;2077406;28;20283;-57
2023/04/13 13:48:08;;;;;;;8.20;1.15;;;;;;;8.88;73.32;95605.16;2080127;28;20198;-57
2023/04/13 13:49:10;;;;;;;6.30;1.40;;;;;;;8.90;72.21;95568.59;2079365;28;20201;-56
2023/04/13 13:50:12;;;;;;;2.65;1.10;;;;;;;9.39;71.65;95596.28;2081712;28;20585;-57
2023/04/13 13:51:13;;;;;;;3.90;0.90;;;;;;;9.59;65.96;95587.34;2077258;28;20562;-57
2023/04/13 13:52:15;;;;;;;5.38;1.75;;;;;;;9.76;67.45;95581.13;2080704;28;20209;-57
2023/04/13 13:53:16;;;;;;;6.65;1.02;;;;;;;9.82;68.84;95586.00;2079148;28;20260;-57
2023/04/13 13:54:19;;;;;;;3.30;1.15;;;;;;;9.77;70.15;95585.44;2081017;28;20197;-58
2023/04/13 13:55:21;;;;;;;3.72;1.25;;;;;;;9.58;65.90;95591.69;2082495;28;20233;-57
2023/04/13 13:56:23;;;;;;;5.18;1.00;;;;;;;9.80;66.54;95587.84;2077390;28;20194;-57
2023/04/13 13:57:25;;;;;;;1.88;0.70;;;;;;;9.96;64.57;95583.41;2078522;28;20288;-57
2023/04/13 13:58:26;;;;;;;3.50;0.90;;;;;;;10.14;65.17;95591.06;2081867;28;20207;-57
2023/04/13 13:59:28;;;;;;;5.85;1.20;;;;;;;10.35;62.81;95588.09;2079951;28;20229;-57
2023/04/13 14:00:30;;;;;;;3.78;1.02;;;;;;;10.27;63.29;95584.19;2080507;28;20574;-57
2023/04/13 14:01:31;;;;;;;3.80;1.08;;;;;;;10.44;62.09;95582.38;2078085;28;20200;-58
2023/04/13 14:02:33;;;;;;;4.85;0.95;;;;;;;10.51;62.89;95590.66;2079519;28;20201;-57
2023/04/13 14:03:35;;;;;;;1.92;0.98;;;;;;;10.09;62.23;95587.91;2079072;28;20202;-57
2023/04/13 14:04:36;;;;;;;3.95;0.95;;;;;;;10.18;61.74;95589.13;2079124;28;20221;-57
2023/04/13 14:05:38;;;;;;;3.33;0.90;;;;;;;10.36;60.62;95576.78;2080166;28;20644;-57
2023/04/13 14:06:40;;;;;;;5.10;0.93;;;;;;;10.74;61.56;95584.00;2080227;28;20225;-57
2023/04/13 14:07:45;;;;;;;2.97;0.80;;;;;;;10.89;59.52;95579.59;2078271;28;20197;-57
2023/04/13 14:08:46;;;;;;;3.05;0.88;;;;;;;11.15;58.84;95582.34;2077653;28;20194;-58
2023/04/13 14:09:47;;;;;;;3.92;1.00;;;;;;;11.49;57.81;95588.00;2077576;28;20768;-58
2023/04/13 14:10:49;;;;;;;3.40;1.10;;;;;;;11.30;58.38;95585.75;2077014;28;20201;-57
2023/04/13 14:11:50;;;;;;;2.95;1.20;;;;;;;11.25;59.25;95586.06;2077843;28;20725;-57
2023/04/13 14:12:54;;;;;;;3.65;0.90;;;;;;;10.82;57.99;95584.38;2078437;28;20204;-57
2023/04/13 14:13:56;;;;;;;7.18;1.38;;;;;;;10.85;59.36;95578.97;2078200;28;20648;-57
2023/04/13 14:14:59;;;;;;;6.03;1.25;;;;;;;10.86;58.78;95587.66;2079759;28;20869;-57
2023/04/13 14:16:01;;;;;;;9.95;3.55;;;;;;;10.89;59.55;95588.31;2080392;28;20206;-57
2023/04/13 14:17:02;;;;;;;3.90;1.00;;;;;;;11.08;57.97;95587.13;2080264;28;20212;-57
2023/04/13 14:18:03;;;;;;;17.88;1.25;;;;;;;11.04;57.27;95580.41;2078201;28;20198;-57
2023/04/13 14:19:11;;;;;;;7.97;1.50;;;;;;;10.70;57.30;95592.97;2076764;28;20280;-57
2023/04/13 14:20:13;;;;;;;4.10;1.02;;;;;;;10.53;57.08;95586.19;2079748;28;20213;-57
2023/04/13 14:21:14;;;;;;;3.35;1.05;;;;;;;10.66;57.80;95584.50;2079871;28;20849;-57
2023/04/13 14:22:16;;;;;;;6.88;1.35;;;;;;;10.69;57.80;95583.47;2079992;28;20209;-57
2023/04/13 14:23:17;;;;;;;3.05;1.10;;;;;;;10.73;57.34;95592.81;2077280;28;20208;-58
2023/04/13 14:24:19;;;;;;;14.00;4.80;;;;;;;10.58;58.11;95594.59;2079013;28;20320;-58
2023/04/13 14:25:20;;;;;;;42.67;17.45;;;;;;;10.41;59.73;95596.44;2079165;28;20201;-57
2023/04/13 14:26:22;;;;;;;9.95;3.72;;;;;;;10.00;61.08;95593.69;2079595;28;20567;-57
2023/04/13 14:27:23;;;;;;;5.50;1.20;;;;;;;9.44;62.62;95591.66;2080613;28;20247;-57
2023/04/13 14:28:25;;;;;;;9.77;1.60;;;;;;;9.16;63.42;95606.22;2078658;28;20201;-57
2023/04/13 14:29:26;;;;;;;4.97;1.45;;;;;;;9.11;63.43;95605.66;2079084;28;20490;-57
2023/04/13 14:30:27;;;;;;;3.63;1.00;;;;;;;8.99;64.21;95618.41;2077843;28;20292;-58
2023/04/13 14:31:29;;;;;;;6.05;1.70;;;;;;;8.86;64.42;95621.78;2079396;28;20209;-57
2023/04/13 14:32:31;;;;;;;4.75;1.25;;;;;;;8.79;64.52;95609.09;2081020;28;20240;-57
2023/04/13 14:33:33;;;;;;;4.50;1.23;;;;;;;8.44;64.55;95616.13;2077751;28;20205;-57
2023/04/13 14:34:34;;;;;;;6.50;1.40;;;;;;;8.61;64.86;95616.13;2079747;28;20614;-57
2023/04/13 14:35:37;;;;;;;4.50;1.23;;;;;;;8.42;65.37;95615.41;2080481;28;20656;-57
2023/04/13 14:36:39;;;;;;;6.95;1.08;;;;;;;8.37;65.94;95623.44;2080312;28;20292;-58
2023/04/13 14:37:40;;;;;;;11.32;2.10;;;;;;;8.48;65.84;95621.16;2079178;28;20680;-57
2023/04/13 14:38:42;;;;;;;4.20;0.90;;;;;;;8.31;66.30;95621.97;2079097;28;20204;-57
2023/04/13 14:39:43;;;;;;;4.90;1.20;;;;;;;8.15;66.99;95621.09;2078964;28;20220;-57
2023/04/13 14:40:45;;;;;;;5.15;1.23;;;;;;;8.17;66.64;95624.47;2081739;28;20205;-57
2023/04/13 14:41:46;;;;;;;5.25;1.00;;;;;;;8.18;67.54;95626.16;2081335;28;20255;-57
2023/04/13 14:42:51;;;;;;;9.10;1.30;;;;;;;8.22;66.25;95624.22;2081171;28;20239;-56
2023/04/13 14:43:53;;;;;;;14.57;1.25;;;;;;;8.30;66.35;95627.25;2077398;28;20197;-57
2023/04/13 14:44:54;;;;;;;6.65;1.20;;;;;;;8.25;66.40;95626.66;2079697;28;20225;-57
2023/04/13 14:45:56;;;;;;;6.28;1.70;;;;;;;8.41;66.64;95629.31;2080496;28;20226;-57
2023/04/13 14:46:59;;;;;;;5.95;1.10;;;;;;;8.54;66.22;95616.53;2082340;28;20741;-57
2023/04/13 14:48:01;;;;;;;3.28;0.93;;;;;;;8.50;65.66;95616.69;2080965;28;20242;-57
2023/04/13 14:49:02;;;;;;;2.40;0.90;;;;;;;8.52;65.31;95616.63;2078893;28;20203;-57
2023/04/13 14:50:05;;;;;;;5.82;1.27;;;;;;;8.43;64.84;95619.66;2078780;28;20213;-57
2023/04/13 14:51:06;;;;;;;8.23;0.98;;;;;;;8.53;65.55;95617.44;2080197;28;20729;-57
2023/04/13 14:52:08;;;;;;;7.00;1.02;;;;;;;8.80;65.48;95615.16;2078007;28;20533;-57
2023/04/13 14:53:09;;;;;;;7.97;1.30;;;;;;;8.91;64.13;95611.94;2078352;28;20205;-57
2023/04/13 14:54:11;;;;;;;12.88;1.17;;;;;;;9.17;63.60;95617.47;2080641;28;20193;-57